createdAt,value
2022-08-17T00:00:42.716Z,27.92
2022-08-17T00:03:11.229Z,28.14
2022-08-17T00:05:40.114Z,28.17
2022-08-17T00:08:06.651Z,28.23
2022-08-17T00:10:35.372Z,28.02
2022-08-17T00:13:02.060Z,27.59
2022-08-17T00:15:28.654Z,27.57
2022-08-17T00:17:55.182Z,27.52
2022-08-17T00:20:23.451Z,27.79
2022-08-17T00:22:57.180Z,27.77
2022-08-17T00:25:23.751Z,27.52
2022-08-17T00:27:50.326Z,27.63
2022-08-17T00:30:18.058Z,27.74
2022-08-17T00:33:14.541Z,27.67
2022-08-17T00:35:32.110Z,27.85
2022-08-17T00:37:59.345Z,27.88
2022-08-17T00:40:25.974Z,27.90
2022-08-17T00:42:52.517Z,27.78
2022-08-17T00:45:19.012Z,27.57
2022-08-17T00:47:46.204Z,27.43
2022-08-17T00:50:12.712Z,27.28
2022-08-17T00:52:41.359Z,27.28
2022-08-17T00:55:08.105Z,27.01
2022-08-17T00:57:35.200Z,26.92
2022-08-17T01:00:03.351Z,27.20
2022-08-17T01:02:30.522Z,27.29
2022-08-17T01:05:00.994Z,27.07
2022-08-17T01:07:27.796Z,26.86
2022-08-17T01:09:54.311Z,26.55
2022-08-17T01:12:20.818Z,26.93
2022-08-17T01:14:47.372Z,26.93
2022-08-17T01:17:14.141Z,27.01
2022-08-17T01:19:40.656Z,26.76
2022-08-17T01:22:07.081Z,27.00
2022-08-17T01:24:33.935Z,26.67
2022-08-17T01:27:00.800Z,26.68
2022-08-17T01:29:27.681Z,26.56
2022-08-17T01:31:54.243Z,26.68
2022-08-17T01:34:20.954Z,26.54
2022-08-17T01:36:47.614Z,26.49
2022-08-17T01:39:14.655Z,26.61
2022-08-17T01:41:41.485Z,26.76
2022-08-17T01:44:07.972Z,26.65
2022-08-17T01:46:34.802Z,26.49
2022-08-17T01:49:01.457Z,26.46
2022-08-17T01:51:28.808Z,26.34
2022-08-17T01:53:55.367Z,26.10
2022-08-17T01:56:22.093Z,25.90
2022-08-17T01:58:48.771Z,26.15
2022-08-17T02:01:15.328Z,26.07
2022-08-17T02:03:42.133Z,26.22
2022-08-17T02:06:27.839Z,26.28
2022-08-17T02:09:01.794Z,26.56
2022-08-17T02:11:28.664Z,26.57
2022-08-17T02:14:02.362Z,26.56
2022-08-17T02:16:37.853Z,26.60
2022-08-17T02:19:04.734Z,26.45
2022-08-17T02:21:31.842Z,25.92
2022-08-17T02:23:59.025Z,26.18
2022-08-17T02:26:26.440Z,25.96
2022-08-17T02:28:53.295Z,26.18
2022-08-17T02:31:20.126Z,26.11
2022-08-17T02:33:46.694Z,26.30
2022-08-17T02:36:27.601Z,26.09
2022-08-17T02:38:54.264Z,26.14
2022-08-17T02:41:20.844Z,25.89
2022-08-17T02:43:47.408Z,25.72
2022-08-17T02:46:13.911Z,25.80
2022-08-17T02:48:40.826Z,25.74
2022-08-17T02:51:07.626Z,25.28
2022-08-17T02:53:35.761Z,24.93
2022-08-17T02:56:02.869Z,25.23
2022-08-17T02:58:35.442Z,25.15
2022-08-17T03:01:03.481Z,25.24
2022-08-17T03:03:30.001Z,24.99
2022-08-17T03:05:56.894Z,25.10
2022-08-17T03:08:24.878Z,25.12
2022-08-17T03:10:52.306Z,25.25
2022-08-17T03:13:19.109Z,25.41
2022-08-17T03:15:45.728Z,25.22
2022-08-17T03:18:24.243Z,25.17
2022-08-17T03:20:52.031Z,25.25
2022-08-17T03:23:18.834Z,24.55
2022-08-17T03:25:53.024Z,24.39
2022-08-17T03:28:20.242Z,24.99
2022-08-17T03:30:46.809Z,25.09
2022-08-17T03:33:14.156Z,25.23
2022-08-17T03:35:40.969Z,25.14
2022-08-17T03:38:07.552Z,25.07
2022-08-17T03:40:57.059Z,24.13
2022-08-17T03:43:21.189Z,24.23
2022-08-17T03:45:47.910Z,24.23
2022-08-17T03:48:17.225Z,24.64
2022-08-17T03:50:43.919Z,24.55
2022-08-17T03:53:10.426Z,24.69
2022-08-17T03:55:36.986Z,24.72
2022-08-17T03:58:03.509Z,24.93
2022-08-17T04:00:30.291Z,24.80
2022-08-17T04:02:56.830Z,24.89
2022-08-17T04:05:23.393Z,24.48
2022-08-17T04:07:50.343Z,24.25
2022-08-17T04:10:17.218Z,24.52
2022-08-17T04:12:47.330Z,24.90
2022-08-17T04:15:13.915Z,24.83
2022-08-17T04:17:40.426Z,24.71
2022-08-17T04:20:07.279Z,24.96
2022-08-17T04:22:34.482Z,25.01
2022-08-17T04:25:02.437Z,24.70
2022-08-17T04:27:29.838Z,24.53
2022-08-17T04:29:56.440Z,24.11
2022-08-17T04:32:58.586Z,24.52
2022-08-17T04:35:09.618Z,24.60
2022-08-17T04:37:36.466Z,24.76
2022-08-17T04:40:04.874Z,24.25
2022-08-17T04:42:31.771Z,24.55
2022-08-17T04:44:58.512Z,24.61
2022-08-17T04:47:27.525Z,24.66
2022-08-17T04:49:54.328Z,24.99
2022-08-17T04:52:32.289Z,25.21
2022-08-17T04:55:08.113Z,25.09
2022-08-17T04:57:39.317Z,25.16
2022-08-17T05:00:08.430Z,25.35
2022-08-17T05:02:35.356Z,25.39
2022-08-17T05:05:16.164Z,25.26
2022-08-17T05:07:43.121Z,25.48
2022-08-17T05:10:09.645Z,25.57
2022-08-17T05:12:36.309Z,25.60
2022-08-17T05:15:05.264Z,25.55
2022-08-17T05:17:31.823Z,25.42
2022-08-17T05:19:58.692Z,25.08
2022-08-17T05:22:25.272Z,25.47
2022-08-17T05:24:53.989Z,25.63
2022-08-17T05:27:22.223Z,25.83
2022-08-17T05:29:50.335Z,25.79
2022-08-17T05:32:39.220Z,25.95
2022-08-17T05:35:03.432Z,25.95
2022-08-17T05:37:29.982Z,26.13
2022-08-17T05:39:56.544Z,26.17
2022-08-17T05:42:23.097Z,25.89
2022-08-17T05:44:49.629Z,26.16
2022-08-17T05:47:16.934Z,26.39
2022-08-17T05:49:44.381Z,26.49
2022-08-17T05:52:19.783Z,26.62
2022-08-17T05:54:47.525Z,26.82
2022-08-17T05:57:14.108Z,26.96
2022-08-17T05:59:40.975Z,26.87
2022-08-17T06:02:10.124Z,26.99
2022-08-17T06:04:36.988Z,27.35
2022-08-17T06:07:03.554Z,27.45
2022-08-17T06:09:33.805Z,27.60
2022-08-17T06:12:00.736Z,27.57
2022-08-17T06:14:28.172Z,27.44
2022-08-17T06:16:54.820Z,27.47
2022-08-17T06:19:21.896Z,27.58
2022-08-17T06:21:48.399Z,27.67
2022-08-17T06:24:15.003Z,27.69
2022-08-17T06:26:43.433Z,27.57
2022-08-17T06:29:10.033Z,27.72
2022-08-17T06:31:45.763Z,27.78
2022-08-17T06:34:12.532Z,27.83
2022-08-17T06:36:39.334Z,27.84
2022-08-17T06:39:05.904Z,27.91
2022-08-17T06:41:32.519Z,27.89
2022-08-17T06:43:59.025Z,27.87
2022-08-17T06:46:26.087Z,28.04
2022-08-17T06:48:52.604Z,28.10
2022-08-17T06:51:19.341Z,27.96
2022-08-17T06:53:46.066Z,28.14
2022-08-17T06:56:12.671Z,28.20
2022-08-17T06:58:40.216Z,28.14
2022-08-17T07:01:07.234Z,28.16
2022-08-17T07:03:34.520Z,28.09
2022-08-17T07:06:02.515Z,28.09
2022-08-17T07:08:32.062Z,27.95
2022-08-17T07:11:00.636Z,27.91
2022-08-17T07:13:27.124Z,27.98
2022-08-17T07:15:56.959Z,27.52
2022-08-17T07:18:23.778Z,27.58
2022-08-17T07:20:51.942Z,27.28
2022-08-17T07:23:18.622Z,27.73
2022-08-17T07:25:45.435Z,27.45
2022-08-17T07:28:12.296Z,27.72
2022-08-17T07:30:45.677Z,27.88
2022-08-17T07:33:16.604Z,28.13
2022-08-17T07:35:43.806Z,28.24
2022-08-17T07:38:25.941Z,28.26
2022-08-17T07:40:53.558Z,27.74
2022-08-17T07:43:22.365Z,26.88
2022-08-17T07:45:50.241Z,26.65
2022-08-17T07:48:17.133Z,26.80
2022-08-17T07:50:49.700Z,27.10
2022-08-17T07:53:17.667Z,27.29
2022-08-17T07:55:44.447Z,27.51
2022-08-17T07:58:13.394Z,27.72
2022-08-17T08:00:42.314Z,27.87
2022-08-17T08:03:11.255Z,27.75
2022-08-17T08:05:50.124Z,27.46
2022-08-17T08:08:17.782Z,27.37
2022-08-17T08:10:45.599Z,27.57
2022-08-17T08:13:14.430Z,27.31
2022-08-17T08:15:44.990Z,27.64
2022-08-17T08:18:15.933Z,26.79
2022-08-17T08:21:02.542Z,27.06
2022-08-17T08:23:29.143Z,27.41
2022-08-17T08:25:55.616Z,27.27
2022-08-17T08:28:23.068Z,27.47
2022-08-17T08:30:50.439Z,27.63
2022-08-17T08:33:17.107Z,27.59
2022-08-17T08:35:43.858Z,27.53
2022-08-17T08:38:10.446Z,27.69
2022-08-17T08:40:37.263Z,27.58
2022-08-17T08:43:03.789Z,27.59
2022-08-17T08:45:31.122Z,27.72
2022-08-17T08:47:57.674Z,27.78
2022-08-17T08:50:37.981Z,27.69
2022-08-17T08:53:05.110Z,27.82
2022-08-17T08:55:32.722Z,27.97
2022-08-17T08:57:59.255Z,28.01
2022-08-17T09:00:26.081Z,28.06
2022-08-17T09:02:52.831Z,27.86
2022-08-17T09:05:19.646Z,28.01
2022-08-17T09:07:46.427Z,28.06
2022-08-17T09:10:13.017Z,28.09
2022-08-17T09:12:42.015Z,28.22
2022-08-17T09:15:12.873Z,28.26
2022-08-17T09:17:39.730Z,28.35
2022-08-17T09:20:06.571Z,28.41
2022-08-17T09:22:35.286Z,28.36
2022-08-17T09:25:04.688Z,28.42
2022-08-17T09:27:31.445Z,28.36
2022-08-17T09:29:58.265Z,28.23
2022-08-17T09:32:24.795Z,28.22
2022-08-17T09:34:51.652Z,28.25
2022-08-17T09:37:21.369Z,28.49
2022-08-17T09:39:48.036Z,28.51
2022-08-17T09:42:14.696Z,27.81
2022-08-17T09:44:41.464Z,27.86
2022-08-17T09:47:08.029Z,28.22
2022-08-17T09:49:34.625Z,28.33
2022-08-17T09:52:01.271Z,28.47
2022-08-17T09:54:44.544Z,28.47
2022-08-17T09:57:29.866Z,28.62
2022-08-17T09:59:57.095Z,28.75
2022-08-17T10:02:24.464Z,28.67
2022-08-17T10:04:51.469Z,28.90
2022-08-17T10:07:18.268Z,28.91
2022-08-17T10:09:45.156Z,28.97
2022-08-17T10:12:12.200Z,29.14
2022-08-17T10:14:44.711Z,29.27
2022-08-17T10:17:20.319Z,29.34
2022-08-17T10:19:48.135Z,29.19
2022-08-17T10:22:34.721Z,29.24
2022-08-17T10:25:21.661Z,29.34
2022-08-17T10:27:48.439Z,29.14
2022-08-17T10:30:23.546Z,29.16
2022-08-17T10:32:50.294Z,29.36
2022-08-17T10:35:16.779Z,29.45
2022-08-17T10:37:43.929Z,29.39
2022-08-17T10:40:10.991Z,29.15
2022-08-17T10:42:37.538Z,29.38
2022-08-17T10:45:11.346Z,29.48
2022-08-17T10:47:54.934Z,29.24
2022-08-17T10:50:22.500Z,29.51
2022-08-17T10:52:50.246Z,29.56
2022-08-17T10:55:17.168Z,29.54
2022-08-17T10:57:43.972Z,29.58
2022-08-17T11:00:10.830Z,29.70
2022-08-17T11:02:39.524Z,29.68
2022-08-17T11:05:13.526Z,29.78
2022-08-17T11:07:40.227Z,29.70
2022-08-17T11:10:06.970Z,29.87
2022-08-17T11:12:33.498Z,29.64
2022-08-17T11:15:00.040Z,29.73
2022-08-17T11:17:29.622Z,29.96
2022-08-17T11:19:56.192Z,29.93
2022-08-17T11:22:23.035Z,30.03
2022-08-17T11:24:49.779Z,29.98
2022-08-17T11:27:20.040Z,30.03
2022-08-17T11:29:51.998Z,29.97
2022-08-17T11:32:19.576Z,29.94
2022-08-17T11:34:48.848Z,29.80
2022-08-17T11:37:15.694Z,30.04
2022-08-17T11:39:42.539Z,30.19
2022-08-17T11:42:09.160Z,30.40
2022-08-17T11:44:35.725Z,30.39
2022-08-17T11:47:02.356Z,30.37
2022-08-17T11:49:28.868Z,30.38
2022-08-17T11:51:55.599Z,30.64
2022-08-17T11:54:32.758Z,30.70
2022-08-17T11:57:00.537Z,30.72
2022-08-17T11:59:27.813Z,30.74
2022-08-17T12:01:54.311Z,30.70
2022-08-17T12:04:20.903Z,30.64
2022-08-17T12:06:47.516Z,30.65
2022-08-17T12:09:14.383Z,31.00
2022-08-17T12:11:58.789Z,31.17
2022-08-17T12:14:45.417Z,31.31
2022-08-17T12:17:22.452Z,31.32
2022-08-17T12:20:01.384Z,31.25
2022-08-17T12:22:31.332Z,31.42
2022-08-17T12:24:58.089Z,31.43
2022-08-17T12:28:04.189Z,31.29
2022-08-17T12:30:14.334Z,31.50
2022-08-17T12:32:40.954Z,31.46
2022-08-17T12:35:07.470Z,31.37
2022-08-17T12:37:35.304Z,31.39
2022-08-17T12:40:01.889Z,31.42
2022-08-17T12:42:28.656Z,31.33
2022-08-17T12:44:55.421Z,31.61
2022-08-17T12:47:23.125Z,31.67
2022-08-17T12:49:50.793Z,31.73
2022-08-17T12:52:17.349Z,31.60
2022-08-17T12:54:44.220Z,31.70
2022-08-17T12:57:10.834Z,31.68
2022-08-17T12:59:37.684Z,31.67
2022-08-17T13:02:04.773Z,31.79
2022-08-17T13:04:31.710Z,31.85
2022-08-17T13:07:00.274Z,31.77
2022-08-17T13:09:33.578Z,31.89
2022-08-17T13:12:07.686Z,32.04
2022-08-17T13:14:34.741Z,31.64
2022-08-17T13:17:01.190Z,31.96
2022-08-17T13:19:40.296Z,31.86
2022-08-17T13:22:08.640Z,31.81
2022-08-17T13:24:38.217Z,31.89
2022-08-17T13:27:12.688Z,31.97
2022-08-17T13:29:39.255Z,31.96
2022-08-17T13:32:13.462Z,31.99
2022-08-17T13:35:12.921Z,32.05
2022-08-17T13:37:29.137Z,32.04
2022-08-17T13:39:55.973Z,32.02
2022-08-17T13:42:23.589Z,32.05
2022-08-17T13:44:51.143Z,31.89
2022-08-17T13:47:17.773Z,31.76
2022-08-17T13:49:48.925Z,31.98
2022-08-17T13:52:16.220Z,31.93
2022-08-17T13:54:47.193Z,32.08
2022-08-17T13:57:14.048Z,32.14
2022-08-17T13:59:53.857Z,32.09
2022-08-17T14:02:22.072Z,32.06
2022-08-17T14:04:48.885Z,32.00
2022-08-17T14:07:17.690Z,32.11
2022-08-17T14:09:44.193Z,32.17
2022-08-17T14:12:11.044Z,32.10
2022-08-17T14:14:38.703Z,32.26
2022-08-17T14:17:08.004Z,32.31
2022-08-17T14:19:35.045Z,32.11
2022-08-17T14:22:04.009Z,32.19
2022-08-17T14:24:30.617Z,32.28
2022-08-17T14:26:59.512Z,32.19
2022-08-17T14:29:26.330Z,32.38
2022-08-17T14:31:54.292Z,32.27
2022-08-17T14:34:23.436Z,31.64
2022-08-17T14:36:50.028Z,31.00
2022-08-17T14:39:18.378Z,30.91
2022-08-17T14:41:47.899Z,31.16
2022-08-17T14:44:16.823Z,31.00
2022-08-17T14:46:43.459Z,31.37
2022-08-17T14:49:10.093Z,31.11
2022-08-17T14:51:37.303Z,30.80
2022-08-17T14:54:25.596Z,31.29
2022-08-17T14:57:32.937Z,30.88
2022-08-17T14:59:46.830Z,30.96
2022-08-17T15:02:13.343Z,30.54
2022-08-17T15:04:45.411Z,30.94
2022-08-17T15:07:19.419Z,31.04
2022-08-17T15:09:49.070Z,30.71
2022-08-17T15:12:16.104Z,30.30
2022-08-17T15:14:44.903Z,30.38
2022-08-17T15:17:11.796Z,30.19
2022-08-17T15:19:38.736Z,30.77
2022-08-17T15:22:05.473Z,30.61
2022-08-17T15:24:34.164Z,30.22
2022-08-17T15:27:01.160Z,30.24
2022-08-17T15:29:28.762Z,30.32
2022-08-17T15:32:00.474Z,29.90
2022-08-17T15:34:29.014Z,30.13
2022-08-17T15:36:55.759Z,30.50
2022-08-17T15:39:24.391Z,30.48
2022-08-17T15:41:57.944Z,30.83
2022-08-17T15:44:34.876Z,30.43
2022-08-17T15:47:01.691Z,30.58
2022-08-17T15:49:28.726Z,30.14
2022-08-17T15:51:56.300Z,29.58
2022-08-17T15:54:23.467Z,29.50
2022-08-17T15:56:50.116Z,29.39
2022-08-17T15:59:18.020Z,29.49
2022-08-17T16:03:14.277Z,29.52
2022-08-17T16:04:32.178Z,29.20
2022-08-17T16:06:59.173Z,29.49
2022-08-17T16:09:28.885Z,28.66
2022-08-17T16:11:56.296Z,28.56
2022-08-17T16:14:24.073Z,28.34
2022-08-17T16:16:51.170Z,28.27
2022-08-17T16:19:18.319Z,28.41
2022-08-17T16:21:46.155Z,28.15
2022-08-17T16:24:14.811Z,27.77
2022-08-17T16:26:41.869Z,27.82
2022-08-17T16:29:08.522Z,27.98
2022-08-17T16:31:35.443Z,28.36
2022-08-17T16:34:17.208Z,27.89
2022-08-17T16:36:54.819Z,27.00
2022-08-17T16:39:23.134Z,26.43
2022-08-17T16:41:51.767Z,26.25
2022-08-17T16:44:20.505Z,25.47
2022-08-17T16:46:47.795Z,23.80
2022-08-17T16:49:36.238Z,23.72
2022-08-17T16:52:01.393Z,22.53
2022-08-17T16:54:27.904Z,22.08
2022-08-17T16:56:54.718Z,22.10
2022-08-17T16:59:31.337Z,22.15
2022-08-17T17:02:08.370Z,22.37
2022-08-17T17:04:35.433Z,22.29
2022-08-17T17:07:02.028Z,22.19
2022-08-17T17:09:28.556Z,22.63
2022-08-17T17:11:55.131Z,22.85
2022-08-17T17:14:22.700Z,23.24
2022-08-17T17:16:49.283Z,23.38
2022-08-17T17:19:15.759Z,23.61
2022-08-17T17:21:46.085Z,23.76
2022-08-17T17:24:12.682Z,23.96
2022-08-17T17:26:40.011Z,24.04
2022-08-17T17:29:06.811Z,23.99
2022-08-17T17:31:34.637Z,24.00
2022-08-17T17:34:01.406Z,24.07
2022-08-17T17:36:37.705Z,24.23
2022-08-17T17:39:04.155Z,24.30
2022-08-17T17:41:30.661Z,24.34
2022-08-17T17:43:57.205Z,24.62
2022-08-17T17:46:29.513Z,24.90
2022-08-17T17:48:56.305Z,24.99
2022-08-17T17:51:55.037Z,25.20
2022-08-17T17:54:10.146Z,25.26
2022-08-17T17:56:43.271Z,25.31
2022-08-17T17:59:12.783Z,24.46
2022-08-17T18:01:39.912Z,24.63
2022-08-17T18:04:17.066Z,24.42
2022-08-17T18:06:47.701Z,24.62
2022-08-17T18:09:18.037Z,24.55
2022-08-17T18:11:46.423Z,23.78
2022-08-17T18:14:18.362Z,23.92
2022-08-17T18:16:44.985Z,23.22
2022-08-17T18:19:11.567Z,22.73
2022-08-17T18:21:38.396Z,22.88
2022-08-17T18:24:04.954Z,23.31
2022-08-17T18:26:32.119Z,23.77
2022-08-17T18:28:58.860Z,24.03
2022-08-17T18:31:25.883Z,24.26
2022-08-17T18:33:53.153Z,23.55
2022-08-17T18:36:22.195Z,23.08
2022-08-17T18:38:49.261Z,22.98
2022-08-17T18:41:16.084Z,22.94
2022-08-17T18:43:52.954Z,23.40
2022-08-17T18:46:29.014Z,23.72
2022-08-17T18:48:56.118Z,23.90
2022-08-17T18:51:39.827Z,24.01
2022-08-17T18:54:09.137Z,23.16
2022-08-17T18:56:36.709Z,23.13
2022-08-17T18:59:03.281Z,22.89
2022-08-17T19:01:41.930Z,22.58
2022-08-17T19:04:16.557Z,22.84
2022-08-17T19:06:50.556Z,22.61
2022-08-17T19:09:17.409Z,22.04
2022-08-17T19:11:44.267Z,22.23
2022-08-17T19:14:11.148Z,21.99
2022-08-17T19:16:37.607Z,21.82
2022-08-17T19:19:04.286Z,22.00
2022-08-17T19:21:31.126Z,21.95
2022-08-17T19:23:57.910Z,21.70
2022-08-17T19:26:53.608Z,21.68
2022-08-17T19:29:12.058Z,21.45
2022-08-17T19:31:38.649Z,21.60
2022-08-17T19:34:05.494Z,21.60
2022-08-17T19:36:32.321Z,21.48
2022-08-17T19:38:58.841Z,21.93
2022-08-17T19:41:25.885Z,21.66
2022-08-17T19:43:53.009Z,22.27
2022-08-17T19:46:19.576Z,22.33
2022-08-17T19:48:48.371Z,22.54
2022-08-17T19:51:15.117Z,22.40
2022-08-17T19:54:03.971Z,22.41
2022-08-17T19:56:28.400Z,22.46
2022-08-17T19:58:54.941Z,21.82
2022-08-17T20:01:22.431Z,21.89
2022-08-17T20:03:49.143Z,22.23
2022-08-17T20:06:15.645Z,22.27
2022-08-17T20:08:42.370Z,22.24
2022-08-17T20:11:08.930Z,22.66
2022-08-17T20:13:35.690Z,22.67
2022-08-17T20:16:10.069Z,22.58
2022-08-17T20:18:36.960Z,23.14
2022-08-17T20:21:03.783Z,23.26
2022-08-17T20:23:30.337Z,23.26
2022-08-17T20:25:58.978Z,23.52
2022-08-17T20:28:25.925Z,23.34
2022-08-17T20:30:52.500Z,23.22
2022-08-17T20:33:19.024Z,23.08
2022-08-17T20:35:45.988Z,23.05
2022-08-17T20:38:13.235Z,23.32
2022-08-17T20:40:40.536Z,23.23
2022-08-17T20:43:07.355Z,23.30
2022-08-17T20:45:33.855Z,22.82
2022-08-17T20:48:33.299Z,22.16
2022-08-17T20:50:47.847Z,22.04
2022-08-17T20:53:16.897Z,21.97
2022-08-17T20:55:52.233Z,22.45
2022-08-17T20:58:19.437Z,22.64
2022-08-17T21:00:46.194Z,22.86
2022-08-17T21:03:13.143Z,23.12
2022-08-17T21:05:40.433Z,23.46
2022-08-17T21:08:07.268Z,23.71
2022-08-17T21:10:34.247Z,23.80
2022-08-17T21:13:00.880Z,23.94
2022-08-17T21:15:29.369Z,23.83
2022-08-17T21:17:56.378Z,23.88
2022-08-17T21:20:23.064Z,23.91
2022-08-17T21:22:49.878Z,23.77
2022-08-17T21:25:17.168Z,23.54
2022-08-17T21:27:43.975Z,23.54
2022-08-17T21:30:13.536Z,23.70
2022-08-17T21:32:42.109Z,23.34
2022-08-17T21:35:08.757Z,23.41
2022-08-17T21:37:35.618Z,23.07
2022-08-17T21:40:02.281Z,23.19
2022-08-17T21:42:29.208Z,23.51
2022-08-17T21:44:56.463Z,23.38
2022-08-17T21:47:23.010Z,22.95
2022-08-17T21:49:50.285Z,22.74
2022-08-17T21:52:16.817Z,22.44
2022-08-17T21:54:46.300Z,21.78
2022-08-17T21:57:12.772Z,21.46
2022-08-17T21:59:39.834Z,21.42
2022-08-17T22:02:08.838Z,22.25
2022-08-17T22:04:35.558Z,22.79
2022-08-17T22:07:02.414Z,23.23
2022-08-17T22:09:29.741Z,23.45
2022-08-17T22:11:58.445Z,23.65
2022-08-17T22:14:25.236Z,23.74
2022-08-17T22:16:52.037Z,23.79
2022-08-17T22:19:18.718Z,23.91
2022-08-17T22:21:45.224Z,23.23
2022-08-17T22:24:12.019Z,23.39
2022-08-17T22:26:38.523Z,23.45
2022-08-17T22:29:06.232Z,23.69
2022-08-17T22:31:35.263Z,23.47
2022-08-17T22:34:01.779Z,23.05
2022-08-17T22:36:29.073Z,22.17
2022-08-17T22:38:56.490Z,21.66
2022-08-17T22:41:23.303Z,22.09
2022-08-17T22:43:50.069Z,22.05
2022-08-17T22:46:18.542Z,21.70
2022-08-17T22:48:45.210Z,21.68
2022-08-17T22:51:12.540Z,21.35
2022-08-17T22:53:39.700Z,20.95
2022-08-17T22:56:06.244Z,20.76
2022-08-17T22:58:35.630Z,20.27
2022-08-17T23:01:02.637Z,20.50
2022-08-17T23:03:29.154Z,20.28
2022-08-17T23:05:55.702Z,21.11
2022-08-17T23:08:24.819Z,21.89
2022-08-17T23:10:51.491Z,22.02
2022-08-17T23:13:18.305Z,22.23
2022-08-17T23:15:47.121Z,22.29
2022-08-17T23:18:13.885Z,21.94
2022-08-17T23:20:42.691Z,22.03
2022-08-17T23:23:09.716Z,21.53
2022-08-17T23:25:36.571Z,22.20
2022-08-17T23:28:04.132Z,22.51
2022-08-17T23:30:30.992Z,22.36
2022-08-17T23:32:57.967Z,22.10
2022-08-17T23:35:40.278Z,22.10
2022-08-17T23:38:15.090Z,22.09
2022-08-17T23:40:41.921Z,22.13
2022-08-17T23:43:17.612Z,22.29
2022-08-17T23:45:52.081Z,22.50
2022-08-17T23:48:35.268Z,22.71
2022-08-17T23:51:04.109Z,22.38
2022-08-17T23:53:31.476Z,22.63
2022-08-17T23:56:06.947Z,22.47
2022-08-17T23:58:36.868Z,22.29
